sensor_id;sensor_type;location;lat;lon;timestamp;pressure;altitude;pressure_sealevel;temperature;humidity
30875;BME280;17581;43.222;27.924;2023-06-10T00:00:33;100124.97;;;20.37;56.21
30875;BME280;17581;43.222;27.924;2023-06-10T00:02:59;100132.75;;;20.33;58.17
30875;BME280;17581;43.222;27.924;2023-06-10T00:05:24;100133.38;;;20.35;60.96
30875;BME280;17581;43.222;27.924;2023-06-10T00:07:50;100136.75;;;20.37;62.38
30875;BME280;17581;43.222;27.924;2023-06-10T00:10:16;100125.53;;;20.26;62.73
30875;BME280;17581;43.222;27.924;2023-06-10T00:12:41;100125.72;;;20.24;63.24
30875;BME280;17581;43.222;27.924;2023-06-10T00:15:07;100143.78;;;20.25;62.87
30875;BME280;17581;43.222;27.924;2023-06-10T00:17:33;100132.13;;;20.10;62.93
30875;BME280;17581;43.222;27.924;2023-06-10T00:19:59;100128.75;;;20.08;62.99
30875;BME280;17581;43.222;27.924;2023-06-10T00:22:24;100138.19;;;20.05;63.37
30875;BME280;17581;43.222;27.924;2023-06-10T00:24:55;100135.63;;;20.04;63.42
30875;BME280;17581;43.222;27.924;2023-06-10T00:27:20;100124.47;;;19.99;63.50
30875;BME280;17581;43.222;27.924;2023-06-10T00:29:46;100126.16;;;20.00;63.15
30875;BME280;17581;43.222;27.924;2023-06-10T00:32:12;100128.25;;;19.98;62.87
30875;BME280;17581;43.222;27.924;2023-06-10T00:34:37;100139.22;;;20.04;62.33
30875;BME280;17581;43.222;27.924;2023-06-10T00:37:03;100117.72;;;19.95;61.55
30875;BME280;17581;43.222;27.924;2023-06-10T00:39:28;100128.88;;;20.00;59.59
30875;BME280;17581;43.222;27.924;2023-06-10T00:41:53;100124.41;;;19.92;58.12
30875;BME280;17581;43.222;27.924;2023-06-10T00:44:19;100123.97;;;19.89;56.91
30875;BME280;17581;43.222;27.924;2023-06-10T00:46:45;100122.25;;;19.88;57.03
30875;BME280;17581;43.222;27.924;2023-06-10T00:49:10;100121.78;;;19.78;56.67
30875;BME280;17581;43.222;27.924;2023-06-10T00:51:36;100134.63;;;19.84;56.44
30875;BME280;17581;43.222;27.924;2023-06-10T00:54:02;100118.41;;;19.54;55.14
30875;BME280;17581;43.222;27.924;2023-06-10T00:56:28;100117.38;;;19.55;54.90
30875;BME280;17581;43.222;27.924;2023-06-10T00:58:53;100131.66;;;19.58;54.22
30875;BME280;17581;43.222;27.924;2023-06-10T01:01:19;100123.22;;;19.52;54.05
30875;BME280;17581;43.222;27.924;2023-06-10T01:03:45;100133.97;;;19.61;54.06
30875;BME280;17581;43.222;27.924;2023-06-10T01:06:28;100132.03;;;19.54;55.00
30875;BME280;17581;43.222;27.924;2023-06-10T01:09:15;100140.09;;;19.63;56.60
30875;BME280;17581;43.222;27.924;2023-06-10T01:11:48;100129.75;;;19.58;57.41
30875;BME280;17581;43.222;27.924;2023-06-10T01:14:17;100139.03;;;19.64;58.25
30875;BME280;17581;43.222;27.924;2023-06-10T01:16:43;100121.59;;;19.58;58.66
30875;BME280;17581;43.222;27.924;2023-06-10T01:19:11;100131.53;;;19.66;59.17
30875;BME280;17581;43.222;27.924;2023-06-10T01:21:38;100119.31;;;19.62;59.79
30875;BME280;17581;43.222;27.924;2023-06-10T01:24:05;100132.41;;;19.73;60.75
30875;BME280;17581;43.222;27.924;2023-06-10T01:26:34;100127.63;;;19.75;61.38
30875;BME280;17581;43.222;27.924;2023-06-10T01:29:26;100112.22;;;19.67;61.86
30875;BME280;17581;43.222;27.924;2023-06-10T01:32:14;100125.94;;;19.74;62.17
30875;BME280;17581;43.222;27.924;2023-06-10T01:34:42;100103.13;;;19.60;61.99
30875;BME280;17581;43.222;27.924;2023-06-10T01:37:09;100112.69;;;19.71;61.40
30875;BME280;17581;43.222;27.924;2023-06-10T01:39:36;100107.38;;;19.63;60.73
30875;BME280;17581;43.222;27.924;2023-06-10T01:42:02;100117.50;;;19.69;60.84
30875;BME280;17581;43.222;27.924;2023-06-10T01:44:28;100101.69;;;19.64;60.90
30875;BME280;17581;43.222;27.924;2023-06-10T01:46:53;100111.97;;;19.62;62.04
30875;BME280;17581;43.222;27.924;2023-06-10T01:49:19;100112.81;;;19.63;62.81
30875;BME280;17581;43.222;27.924;2023-06-10T01:51:44;100115.28;;;19.58;63.32
30875;BME280;17581;43.222;27.924;2023-06-10T01:54:10;100103.09;;;19.53;63.52
30875;BME280;17581;43.222;27.924;2023-06-10T01:56:35;100095.88;;;19.46;63.59
30875;BME280;17581;43.222;27.924;2023-06-10T01:59:00;100109.72;;;19.44;63.97
30875;BME280;17581;43.222;27.924;2023-06-10T02:01:26;100110.59;;;19.51;64.08
30875;BME280;17581;43.222;27.924;2023-06-10T02:03:52;100110.34;;;19.46;63.85
30875;BME280;17581;43.222;27.924;2023-06-10T02:06:17;100116.34;;;19.57;64.18
30875;BME280;17581;43.222;27.924;2023-06-10T02:08:43;100111.13;;;19.62;65.06
30875;BME280;17581;43.222;27.924;2023-06-10T02:11:08;100100.53;;;19.52;65.82
30875;BME280;17581;43.222;27.924;2023-06-10T02:13:34;100112.31;;;19.52;66.25
30875;BME280;17581;43.222;27.924;2023-06-10T02:16:00;100092.03;;;19.40;66.40
30875;BME280;17581;43.222;27.924;2023-06-10T02:18:26;100119.88;;;19.57;66.86
30875;BME280;17581;43.222;27.924;2023-06-10T02:20:53;100107.84;;;19.30;67.00
30875;BME280;17581;43.222;27.924;2023-06-10T02:23:19;100121.19;;;19.40;67.23
30875;BME280;17581;43.222;27.924;2023-06-10T02:25:45;100107.84;;;19.30;67.43
30875;BME280;17581;43.222;27.924;2023-06-10T02:28:10;100127.09;;;19.43;67.28
30875;BME280;17581;43.222;27.924;2023-06-10T02:30:39;100112.50;;;19.36;66.86
30875;BME280;17581;43.222;27.924;2023-06-10T02:33:04;100122.28;;;19.45;67.05
30875;BME280;17581;43.222;27.924;2023-06-10T02:35:30;100128.13;;;19.42;67.38
30875;BME280;17581;43.222;27.924;2023-06-10T02:37:55;100121.81;;;19.42;67.47
30875;BME280;17581;43.222;27.924;2023-06-10T02:40:21;100123.06;;;19.39;67.28
30875;BME280;17581;43.222;27.924;2023-06-10T02:42:46;100111.66;;;19.36;67.42
30875;BME280;17581;43.222;27.924;2023-06-10T02:45:12;100108.69;;;19.31;67.16
30875;BME280;17581;43.222;27.924;2023-06-10T02:47:37;100106.81;;;19.31;66.53
30875;BME280;17581;43.222;27.924;2023-06-10T02:50:04;100099.41;;;19.25;66.70
30875;BME280;17581;43.222;27.924;2023-06-10T02:52:29;100120.44;;;19.31;65.96
30875;BME280;17581;43.222;27.924;2023-06-10T02:54:56;100122.47;;;19.08;64.57
30875;BME280;17581;43.222;27.924;2023-06-10T02:57:22;100125.44;;;18.92;63.40
30875;BME280;17581;43.222;27.924;2023-06-10T02:59:47;100123.94;;;18.89;64.55
30875;BME280;17581;43.222;27.924;2023-06-10T03:02:13;100118.28;;;18.91;65.21
30875;BME280;17581;43.222;27.924;2023-06-10T03:04:38;100117.81;;;18.87;66.05
30875;BME280;17581;43.222;27.924;2023-06-10T03:07:04;100133.50;;;19.00;66.40
30875;BME280;17581;43.222;27.924;2023-06-10T03:09:32;100137.31;;;19.06;66.86
30875;BME280;17581;43.222;27.924;2023-06-10T03:11:57;100135.28;;;19.08;66.82
30875;BME280;17581;43.222;27.924;2023-06-10T03:14:25;100140.13;;;19.12;66.73
30875;BME280;17581;43.222;27.924;2023-06-10T03:16:50;100108.84;;;19.08;66.93
30875;BME280;17581;43.222;27.924;2023-06-10T03:19:15;100111.84;;;19.13;67.20
30875;BME280;17581;43.222;27.924;2023-06-10T03:21:43;100122.72;;;19.28;67.16
30875;BME280;17581;43.222;27.924;2023-06-10T03:24:09;100091.34;;;19.17;67.23
30875;BME280;17581;43.222;27.924;2023-06-10T03:26:36;100128.88;;;19.36;67.11
30875;BME280;17581;43.222;27.924;2023-06-10T03:29:01;100106.94;;;19.23;67.07
30875;BME280;17581;43.222;27.924;2023-06-10T03:31:26;100124.09;;;19.38;67.15
30875;BME280;17581;43.222;27.924;2023-06-10T03:33:52;100114.13;;;19.31;66.86
30875;BME280;17581;43.222;27.924;2023-06-10T03:36:17;100132.13;;;19.25;67.06
30875;BME280;17581;43.222;27.924;2023-06-10T03:38:43;100131.75;;;19.28;67.13
30875;BME280;17581;43.222;27.924;2023-06-10T03:41:08;100126.81;;;19.38;67.02
30875;BME280;17581;43.222;27.924;2023-06-10T03:43:34;100123.06;;;19.39;66.64
30875;BME280;17581;43.222;27.924;2023-06-10T03:45:59;100126.47;;;19.41;66.77
30875;BME280;17581;43.222;27.924;2023-06-10T03:48:25;100112.25;;;19.31;66.71
30875;BME280;17581;43.222;27.924;2023-06-10T03:50:50;100128.81;;;19.44;66.81
30875;BME280;17581;43.222;27.924;2023-06-10T03:53:17;100118.06;;;19.43;66.80
30875;BME280;17581;43.222;27.924;2023-06-10T03:55:42;100119.94;;;19.42;66.95
30875;BME280;17581;43.222;27.924;2023-06-10T03:58:08;100111.97;;;19.41;66.78
30875;BME280;17581;43.222;27.924;2023-06-10T04:00:33;100116.00;;;19.45;67.07
30875;BME280;17581;43.222;27.924;2023-06-10T04:03:07;100108.53;;;19.53;66.59
30875;BME280;17581;43.222;27.924;2023-06-10T04:05:34;100116.44;;;19.70;66.38
30875;BME280;17581;43.222;27.924;2023-06-10T04:08:00;100112.09;;;19.75;66.19
30875;BME280;17581;43.222;27.924;2023-06-10T04:10:26;100115.25;;;19.79;66.25
30875;BME280;17581;43.222;27.924;2023-06-10T04:12:52;100112.47;;;19.93;66.01
30875;BME280;17581;43.222;27.924;2023-06-10T04:15:17;100108.72;;;20.01;65.17
30875;BME280;17581;43.222;27.924;2023-06-10T04:17:44;100115.09;;;20.08;64.16
30875;BME280;17581;43.222;27.924;2023-06-10T04:20:10;100103.13;;;20.09;63.59
30875;BME280;17581;43.222;27.924;2023-06-10T04:22:35;100098.56;;;20.16;63.19
30875;BME280;17581;43.222;27.924;2023-06-10T04:25:01;100091.03;;;20.18;62.86
30875;BME280;17581;43.222;27.924;2023-06-10T04:27:27;100101.00;;;20.32;62.76
30875;BME280;17581;43.222;27.924;2023-06-10T04:29:52;100093.72;;;20.39;62.45
30875;BME280;17581;43.222;27.924;2023-06-10T04:32:18;100111.91;;;20.60;61.99
30875;BME280;17581;43.222;27.924;2023-06-10T04:34:44;100121.63;;;20.69;61.72
30875;BME280;17581;43.222;27.924;2023-06-10T04:37:09;100114.50;;;20.75;61.32
30875;BME280;17581;43.222;27.924;2023-06-10T04:39:35;100110.31;;;20.79;60.75
30875;BME280;17581;43.222;27.924;2023-06-10T04:42:00;100101.84;;;20.74;60.61
30875;BME280;17581;43.222;27.924;2023-06-10T04:44:26;100112.44;;;20.90;60.89
30875;BME280;17581;43.222;27.924;2023-06-10T04:46:52;100113.34;;;20.97;60.46
30875;BME280;17581;43.222;27.924;2023-06-10T04:49:17;100091.88;;;20.94;60.42
30875;BME280;17581;43.222;27.924;2023-06-10T04:51:43;100103.75;;;21.14;60.20
30875;BME280;17581;43.222;27.924;2023-06-10T04:54:09;100104.19;;;21.24;59.97
30875;BME280;17581;43.222;27.924;2023-06-10T04:56:34;100110.53;;;21.38;59.79
30875;BME280;17581;43.222;27.924;2023-06-10T04:59:00;100111.84;;;21.55;59.58
30875;BME280;17581;43.222;27.924;2023-06-10T05:01:25;100109.31;;;21.60;59.65
30875;BME280;17581;43.222;27.924;2023-06-10T05:03:51;100123.44;;;21.77;59.22
30875;BME280;17581;43.222;27.924;2023-06-10T05:06:16;100117.97;;;21.83;58.66
30875;BME280;17581;43.222;27.924;2023-06-10T05:08:42;100119.06;;;21.89;59.14
30875;BME280;17581;43.222;27.924;2023-06-10T05:11:07;100106.00;;;21.91;59.01
30875;BME280;17581;43.222;27.924;2023-06-10T05:13:33;100118.00;;;22.09;58.76
30875;BME280;17581;43.222;27.924;2023-06-10T05:15:59;100105.97;;;22.17;58.40
30875;BME280;17581;43.222;27.924;2023-06-10T05:18:24;100116.91;;;22.37;58.65
30875;BME280;17581;43.222;27.924;2023-06-10T05:20:50;100099.19;;;22.39;58.02
30875;BME280;17581;43.222;27.924;2023-06-10T05:23:15;100097.91;;;22.48;57.90
30875;BME280;17581;43.222;27.924;2023-06-10T05:25:41;100115.81;;;22.70;57.59
30875;BME280;17581;43.222;27.924;2023-06-10T05:28:07;100116.63;;;22.84;57.56
30875;BME280;17581;43.222;27.924;2023-06-10T05:30:35;100102.84;;;22.91;56.95
30875;BME280;17581;43.222;27.924;2023-06-10T05:33:03;100110.78;;;23.12;56.69
30875;BME280;17581;43.222;27.924;2023-06-10T05:35:29;100088.38;;;23.15;56.50
30875;BME280;17581;43.222;27.924;2023-06-10T05:37:55;100080.72;;;23.30;56.14
30875;BME280;17581;43.222;27.924;2023-06-10T05:40:20;100109.66;;;23.64;55.65
30875;BME280;17581;43.222;27.924;2023-06-10T05:42:46;100089.50;;;23.76;54.75
30875;BME280;17581;43.222;27.924;2023-06-10T05:45:14;100081.16;;;23.90;53.75
30875;BME280;17581;43.222;27.924;2023-06-10T05:47:40;100095.75;;;24.15;53.17
30875;BME280;17581;43.222;27.924;2023-06-10T05:50:06;100086.94;;;24.31;52.70
30875;BME280;17581;43.222;27.924;2023-06-10T05:52:36;100089.84;;;24.54;52.22
30875;BME280;17581;43.222;27.924;2023-06-10T05:55:04;100060.97;;;24.63;51.46
30875;BME280;17581;43.222;27.924;2023-06-10T05:57:30;100089.41;;;24.94;50.80
30875;BME280;17581;43.222;27.924;2023-06-10T05:59:56;100061.38;;;24.85;50.09
30875;BME280;17581;43.222;27.924;2023-06-10T06:02:21;100085.78;;;25.11;49.90
30875;BME280;17581;43.222;27.924;2023-06-10T06:04:47;100077.09;;;25.26;49.57
30875;BME280;17581;43.222;27.924;2023-06-10T06:07:12;100090.38;;;25.47;49.02
30875;BME280;17581;43.222;27.924;2023-06-10T06:09:38;100088.53;;;25.59;48.95
30875;BME280;17581;43.222;27.924;2023-06-10T06:12:03;100082.78;;;25.72;49.44
30875;BME280;17581;43.222;27.924;2023-06-10T06:14:31;100083.06;;;25.82;48.80
30875;BME280;17581;43.222;27.924;2023-06-10T06:16:57;100076.31;;;25.78;48.27
30875;BME280;17581;43.222;27.924;2023-06-10T06:19:23;100075.63;;;25.83;48.56
30875;BME280;17581;43.222;27.924;2023-06-10T06:21:48;100072.66;;;25.96;48.79
30875;BME280;17581;43.222;27.924;2023-06-10T06:24:15;100059.94;;;26.07;48.05
30875;BME280;17581;43.222;27.924;2023-06-10T06:26:40;100059.16;;;26.29;45.26
30875;BME280;17581;43.222;27.924;2023-06-10T06:29:06;100063.31;;;26.43;46.01
30875;BME280;17581;43.222;27.924;2023-06-10T06:31:31;100057.56;;;26.57;46.68
30875;BME280;17581;43.222;27.924;2023-06-10T06:33:57;100064.72;;;26.69;44.99
30875;BME280;17581;43.222;27.924;2023-06-10T06:36:22;100059.31;;;26.86;42.24
30875;BME280;17581;43.222;27.924;2023-06-10T06:38:48;100050.16;;;26.97;41.02
30875;BME280;17581;43.222;27.924;2023-06-10T06:41:13;100058.47;;;27.14;43.50
30875;BME280;17581;43.222;27.924;2023-06-10T06:43:38;100058.97;;;27.11;41.65
30875;BME280;17581;43.222;27.924;2023-06-10T06:46:05;100055.50;;;27.03;40.67
30875;BME280;17581;43.222;27.924;2023-06-10T06:48:30;100055.41;;;26.98;40.33
30875;BME280;17581;43.222;27.924;2023-06-10T06:50:56;100054.41;;;26.88;40.27
30875;BME280;17581;43.222;27.924;2023-06-10T06:53:23;100049.47;;;26.78;39.97
30875;BME280;17581;43.222;27.924;2023-06-10T06:55:48;100056.66;;;26.79;39.62
30875;BME280;17581;43.222;27.924;2023-06-10T06:58:14;100057.38;;;26.86;40.08
30875;BME280;17581;43.222;27.924;2023-06-10T07:00:39;100049.69;;;26.88;39.60
30875;BME280;17581;43.222;27.924;2023-06-10T07:03:04;100040.97;;;26.80;39.51
30875;BME280;17581;43.222;27.924;2023-06-10T07:05:30;100038.66;;;26.88;39.92
30875;BME280;17581;43.222;27.924;2023-06-10T07:07:56;100046.59;;;27.13;39.42
30875;BME280;17581;43.222;27.924;2023-06-10T07:10:25;100042.78;;;27.31;39.14
30875;BME280;17581;43.222;27.924;2023-06-10T07:12:51;100030.63;;;27.43;38.50
30875;BME280;17581;43.222;27.924;2023-06-10T07:15:17;100039.50;;;27.62;37.82
30875;BME280;17581;43.222;27.924;2023-06-10T07:17:43;100041.47;;;27.78;37.47
30875;BME280;17581;43.222;27.924;2023-06-10T07:20:09;100032.31;;;27.94;37.58
30875;BME280;17581;43.222;27.924;2023-06-10T07:22:35;100023.97;;;28.06;36.88
30875;BME280;17581;43.222;27.924;2023-06-10T07:25:00;100038.06;;;28.26;36.54
30875;BME280;17581;43.222;27.924;2023-06-10T07:27:26;100044.16;;;28.45;36.34
30875;BME280;17581;43.222;27.924;2023-06-10T07:29:51;100020.63;;;28.42;35.53
30875;BME280;17581;43.222;27.924;2023-06-10T07:32:17;100039.06;;;28.37;35.76
30875;BME280;17581;43.222;27.924;2023-06-10T07:34:43;100019.94;;;28.35;36.12
30875;BME280;17581;43.222;27.924;2023-06-10T07:37:08;100015.31;;;28.41;36.66
30875;BME280;17581;43.222;27.924;2023-06-10T07:39:34;100028.97;;;28.47;36.37
30875;BME280;17581;43.222;27.924;2023-06-10T07:42:00;100041.28;;;28.56;35.63
30875;BME280;17581;43.222;27.924;2023-06-10T07:44:25;100038.63;;;28.45;35.66
30875;BME280;17581;43.222;27.924;2023-06-10T07:46:51;100035.91;;;28.28;35.51
30875;BME280;17581;43.222;27.924;2023-06-10T07:49:16;100046.19;;;28.33;35.92
30875;BME280;17581;43.222;27.924;2023-06-10T07:51:42;100050.03;;;28.32;36.96
30875;BME280;17581;43.222;27.924;2023-06-10T07:54:07;100053.66;;;28.32;37.78
30875;BME280;17581;43.222;27.924;2023-06-10T07:56:33;100032.88;;;28.30;37.97
30875;BME280;17581;43.222;27.924;2023-06-10T07:58:58;100037.16;;;28.37;38.16
30875;BME280;17581;43.222;27.924;2023-06-10T08:01:24;100030.41;;;28.50;38.05
30875;BME280;17581;43.222;27.924;2023-06-10T08:03:49;100031.13;;;28.62;37.61
30875;BME280;17581;43.222;27.924;2023-06-10T08:06:15;100029.84;;;28.70;37.42
30875;BME280;17581;43.222;27.924;2023-06-10T08:08:42;100028.56;;;28.99;37.20
30875;BME280;17581;43.222;27.924;2023-06-10T08:11:10;100030.78;;;29.24;37.26
30875;BME280;17581;43.222;27.924;2023-06-10T08:13:36;100019.19;;;29.27;36.80
30875;BME280;17581;43.222;27.924;2023-06-10T08:16:01;100003.28;;;29.44;36.22
30875;BME280;17581;43.222;27.924;2023-06-10T08:18:26;100022.69;;;29.76;35.74
30875;BME280;17581;43.222;27.924;2023-06-10T08:20:52;100013.97;;;29.94;35.33
30875;BME280;17581;43.222;27.924;2023-06-10T08:23:17;100011.81;;;30.01;35.16
30875;BME280;17581;43.222;27.924;2023-06-10T08:25:44;99999.84;;;29.95;38.87
30875;BME280;17581;43.222;27.924;2023-06-10T08:28:10;100012.00;;;29.89;39.43
30875;BME280;17581;43.222;27.924;2023-06-10T08:30:35;100014.75;;;29.84;39.27
30875;BME280;17581;43.222;27.924;2023-06-10T08:33:01;100007.56;;;29.30;40.12
30875;BME280;17581;43.222;27.924;2023-06-10T08:35:26;100019.06;;;29.16;39.89
30875;BME280;17581;43.222;27.924;2023-06-10T08:37:52;100005.25;;;28.95;39.95
30875;BME280;17581;43.222;27.924;2023-06-10T08:40:17;100025.00;;;28.60;41.52
30875;BME280;17581;43.222;27.924;2023-06-10T08:42:46;100023.81;;;28.73;41.19
30875;BME280;17581;43.222;27.924;2023-06-10T08:45:16;100022.06;;;28.88;39.89
30875;BME280;17581;43.222;27.924;2023-06-10T08:47:45;100020.78;;;28.74;41.96
30875;BME280;17581;43.222;27.924;2023-06-10T08:50:11;100019.25;;;28.45;43.42
30875;BME280;17581;43.222;27.924;2023-06-10T08:52:42;100015.44;;;28.29;44.40
30875;BME280;17581;43.222;27.924;2023-06-10T08:55:15;100024.22;;;28.43;44.16
30875;BME280;17581;43.222;27.924;2023-06-10T08:57:45;100015.91;;;28.43;44.16
30875;BME280;17581;43.222;27.924;2023-06-10T09:00:15;100014.94;;;28.54;43.89
30875;BME280;17581;43.222;27.924;2023-06-10T09:02:43;100015.28;;;28.57;43.59
30875;BME280;17581;43.222;27.924;2023-06-10T09:05:09;100014.19;;;28.37;44.07
30875;BME280;17581;43.222;27.924;2023-06-10T09:07:35;100007.09;;;28.24;42.82
30875;BME280;17581;43.222;27.924;2023-06-10T09:10:02;100002.50;;;28.35;43.36
30875;BME280;17581;43.222;27.924;2023-06-10T09:12:29;100007.81;;;28.36;42.33
30875;BME280;17581;43.222;27.924;2023-06-10T09:14:55;99995.97;;;28.19;42.09
30875;BME280;17581;43.222;27.924;2023-06-10T09:17:21;100005.56;;;28.33;41.45
30875;BME280;17581;43.222;27.924;2023-06-10T09:19:47;99989.91;;;27.89;41.33
30875;BME280;17581;43.222;27.924;2023-06-10T09:22:13;99980.38;;;27.96;41.32
30875;BME280;17581;43.222;27.924;2023-06-10T09:24:38;99981.97;;;27.92;40.74
30875;BME280;17581;43.222;27.924;2023-06-10T09:27:05;99974.91;;;28.01;40.87
30875;BME280;17581;43.222;27.924;2023-06-10T09:29:44;99988.94;;;27.95;40.67
30875;BME280;17581;43.222;27.924;2023-06-10T09:32:10;100001.66;;;28.13;41.13
30875;BME280;17581;43.222;27.924;2023-06-10T09:34:36;99967.88;;;28.10;40.50
30875;BME280;17581;43.222;27.924;2023-06-10T09:37:02;99985.84;;;28.30;39.97
30875;BME280;17581;43.222;27.924;2023-06-10T09:39:27;99958.78;;;27.93;40.25
30875;BME280;17581;43.222;27.924;2023-06-10T09:41:52;99975.28;;;28.05;40.42
30875;BME280;17581;43.222;27.924;2023-06-10T09:44:20;99970.66;;;28.10;41.02
30875;BME280;17581;43.222;27.924;2023-06-10T09:46:48;99965.97;;;27.94;40.62
30875;BME280;17581;43.222;27.924;2023-06-10T09:49:18;99988.94;;;27.95;41.51
30875;BME280;17581;43.222;27.924;2023-06-10T09:51:54;99974.34;;;27.83;42.28
30875;BME280;17581;43.222;27.924;2023-06-10T09:54:21;99967.84;;;27.72;43.35
30875;BME280;17581;43.222;27.924;2023-06-10T09:56:51;99967.63;;;27.95;42.53
30875;BME280;17581;43.222;27.924;2023-06-10T09:59:37;99970.28;;;28.24;42.91
30875;BME280;17581;43.222;27.924;2023-06-10T10:02:03;99953.31;;;28.37;41.29
30875;BME280;17581;43.222;27.924;2023-06-10T10:04:29;99976.69;;;28.68;41.23
30875;BME280;17581;43.222;27.924;2023-06-10T10:06:55;99977.16;;;29.08;39.60
30875;BME280;17581;43.222;27.924;2023-06-10T10:09:20;99967.41;;;29.05;38.92
30875;BME280;17581;43.222;27.924;2023-06-10T10:11:47;99964.06;;;29.57;37.65
30875;BME280;17581;43.222;27.924;2023-06-10T10:14:14;99970.91;;;29.81;37.48
30875;BME280;17581;43.222;27.924;2023-06-10T10:16:42;99962.22;;;30.09;37.04
30875;BME280;17581;43.222;27.924;2023-06-10T10:19:11;99967.59;;;30.31;36.80
30875;BME280;17581;43.222;27.924;2023-06-10T10:21:55;99960.78;;;30.49;33.00
30875;BME280;17581;43.222;27.924;2023-06-10T10:24:23;99956.41;;;30.63;31.06
30875;BME280;17581;43.222;27.924;2023-06-10T10:26:53;99940.59;;;30.68;33.59
30875;BME280;17581;43.222;27.924;2023-06-10T10:31:50;99942.31;;;30.85;32.79
30875;BME280;17581;43.222;27.924;2023-06-10T10:34:23;99932.31;;;30.94;31.78
30875;BME280;17581;43.222;27.924;2023-06-10T10:36:50;99941.28;;;31.16;30.91
30875;BME280;17581;43.222;27.924;2023-06-10T10:39:16;99921.53;;;31.22;29.45
30875;BME280;17581;43.222;27.924;2023-06-10T10:41:42;99933.78;;;31.37;30.02
30875;BME280;17581;43.222;27.924;2023-06-10T10:44:09;99915.44;;;31.46;29.63
30875;BME280;17581;43.222;27.924;2023-06-10T10:46:43;99938.53;;;31.66;28.82
30875;BME280;17581;43.222;27.924;2023-06-10T10:49:11;99929.91;;;31.63;28.74
30875;BME280;17581;43.222;27.924;2023-06-10T10:51:37;99939.34;;;31.72;28.09
30875;BME280;17581;43.222;27.924;2023-06-10T10:54:15;99936.03;;;31.80;28.74
30875;BME280;17581;43.222;27.924;2023-06-10T10:59:55;99940.41;;;32.16;29.67
30875;BME280;17581;43.222;27.924;2023-06-10T11:02:42;99932.59;;;32.18;28.66
30875;BME280;17581;43.222;27.924;2023-06-10T11:05:10;99919.53;;;32.19;28.85
30875;BME280;17581;43.222;27.924;2023-06-10T11:07:36;99928.13;;;32.17;29.20
30875;BME280;17581;43.222;27.924;2023-06-10T11:15:12;99933.44;;;31.99;29.94
30875;BME280;17581;43.222;27.924;2023-06-10T11:20:45;99921.19;;;32.15;29.43
30875;BME280;17581;43.222;27.924;2023-06-10T11:28:34;99898.16;;;32.68;27.96
30875;BME280;17581;43.222;27.924;2023-06-10T11:31:00;99900.88;;;32.78;30.85
30875;BME280;17581;43.222;27.924;2023-06-10T11:33:25;99904.59;;;32.64;32.07
30875;BME280;17581;43.222;27.924;2023-06-10T11:35:51;99899.72;;;32.30;32.19
30875;BME280;17581;43.222;27.924;2023-06-10T11:38:17;99895.31;;;32.19;32.22
30875;BME280;17581;43.222;27.924;2023-06-10T11:40:50;99893.53;;;32.44;32.58
30875;BME280;17581;43.222;27.924;2023-06-10T11:43:19;99893.59;;;32.28;32.79
30875;BME280;17581;43.222;27.924;2023-06-10T11:45:44;99848.63;;;32.06;32.91
30875;BME280;17581;43.222;27.924;2023-06-10T11:48:10;99893.38;;;32.15;33.16
30875;BME280;17581;43.222;27.924;2023-06-10T11:50:36;99893.09;;;32.11;33.27
30875;BME280;17581;43.222;27.924;2023-06-10T11:53:03;99894.25;;;31.90;33.46
30875;BME280;17581;43.222;27.924;2023-06-10T11:55:48;99872.06;;;31.70;33.47
30875;BME280;17581;43.222;27.924;2023-06-10T12:00:45;99867.09;;;31.57;32.89
30875;BME280;17581;43.222;27.924;2023-06-10T12:03:10;99868.72;;;31.73;30.90
30875;BME280;17581;43.222;27.924;2023-06-10T12:05:36;99857.91;;;31.61;31.81
30875;BME280;17581;43.222;27.924;2023-06-10T12:08:11;99859.00;;;31.70;32.08
30875;BME280;17581;43.222;27.924;2023-06-10T12:10:41;99864.22;;;31.87;30.11
30875;BME280;17581;43.222;27.924;2023-06-10T12:13:08;99848.63;;;32.06;29.19
30875;BME280;17581;43.222;27.924;2023-06-10T12:15:34;99845.75;;;32.21;28.69
30875;BME280;17581;43.222;27.924;2023-06-10T12:18:00;99842.53;;;32.53;28.65
30875;BME280;17581;43.222;27.924;2023-06-10T12:20:30;99847.09;;;32.83;27.77
30875;BME280;17581;43.222;27.924;2023-06-10T12:22:59;99853.75;;;32.87;26.83
30875;BME280;17581;43.222;27.924;2023-06-10T12:25:26;99850.88;;;32.97;27.21
30875;BME280;17581;43.222;27.924;2023-06-10T12:27:52;99846.38;;;33.01;27.62
30875;BME280;17581;43.222;27.924;2023-06-10T12:30:19;99840.19;;;33.14;27.85
30875;BME280;17581;43.222;27.924;2023-06-10T12:32:46;99828.41;;;33.22;28.01
30875;BME280;17581;43.222;27.924;2023-06-10T12:35:16;99845.03;;;33.32;27.72
30875;BME280;17581;43.222;27.924;2023-06-10T12:37:55;99841.66;;;33.35;28.32
30875;BME280;17581;43.222;27.924;2023-06-10T12:40:26;99835.75;;;33.42;27.92
30875;BME280;17581;43.222;27.924;2023-06-10T12:42:53;99833.66;;;33.53;27.70
30875;BME280;17581;43.222;27.924;2023-06-10T12:45:36;99834.19;;;33.60;27.46
30875;BME280;17581;43.222;27.924;2023-06-10T12:50:32;99833.38;;;33.54;26.67
30875;BME280;17581;43.222;27.924;2023-06-10T12:52:58;99827.06;;;33.44;27.69
30875;BME280;17581;43.222;27.924;2023-06-10T12:55:24;99794.34;;;33.25;28.33
30875;BME280;17581;43.222;27.924;2023-06-10T12:57:50;99828.19;;;33.42;28.08
30875;BME280;17581;43.222;27.924;2023-06-10T13:00:16;99811.59;;;33.56;28.22
30875;BME280;17581;43.222;27.924;2023-06-10T13:02:42;99816.44;;;33.74;28.54
30875;BME280;17581;43.222;27.924;2023-06-10T13:05:08;99820.66;;;33.72;27.88